createdAt,value
2019-01-18T00:02:40.338Z,16.73
2019-01-18T00:03:39.874Z,14.65
2019-01-18T00:04:39.396Z,18.50
2019-01-18T00:05:39.003Z,14.80
2019-01-18T00:06:39.444Z,16.45
2019-01-18T00:07:40.551Z,21.25
2019-01-18T00:08:40.811Z,14.53
2019-01-18T00:09:41.053Z,17.60
2019-01-18T00:10:40.695Z,14.45
2019-01-18T00:11:40.267Z,14.43
2019-01-18T00:12:39.847Z,14.80
2019-01-18T00:13:40.270Z,15.23
2019-01-18T00:14:40.709Z,15.25
2019-01-18T00:15:43.258Z,15.35
2019-01-18T00:16:42.871Z,17.20
2019-01-18T00:17:42.410Z,15.90
2019-01-18T00:18:42.850Z,17.75
2019-01-18T00:20:25.374Z,18.40
2019-01-18T00:21:16.465Z,13.58
2019-01-18T00:22:04.331Z,17.20
2019-01-18T00:23:11.457Z,14.45
2019-01-18T00:24:18.322Z,14.70
2019-01-18T00:25:05.937Z,17.77
2019-01-18T00:26:13.213Z,15.05
2019-01-18T00:27:20.194Z,14.30
2019-01-18T00:28:27.246Z,13.25
2019-01-18T00:29:35.401Z,14.78
2019-01-18T00:30:42.527Z,12.68
2019-01-18T00:31:49.493Z,15.10
2019-01-18T00:32:56.395Z,14.93
2019-01-18T00:34:03.464Z,15.13
2019-01-18T00:35:10.306Z,16.95
2019-01-18T00:36:17.191Z,15.20
2019-01-18T00:37:24.067Z,13.72
2019-01-18T00:38:31.102Z,21.33
2019-01-18T00:39:38.007Z,14.75
2019-01-18T00:40:44.930Z,17.62
2019-01-18T00:41:51.830Z,15.70
2019-01-18T00:42:58.716Z,14.78
2019-01-18T00:44:25.325Z,17.27
2019-01-18T00:45:32.295Z,12.43
2019-01-18T00:46:39.260Z,16.52
2019-01-18T00:47:46.328Z,17.35
2019-01-18T00:48:53.275Z,14.13
2019-01-18T00:50:00.335Z,14.60
2019-01-18T00:51:07.239Z,13.65
2019-01-18T00:52:14.296Z,15.32
2019-01-18T00:53:21.212Z,13.83
2019-01-18T00:54:28.168Z,15.80
2019-01-18T00:55:35.014Z,14.83
2019-01-18T00:56:42.018Z,15.53
2019-01-18T00:57:48.996Z,17.50
2019-01-18T00:58:56.080Z,13.45
2019-01-18T00:59:55.913Z,16.70
2019-01-18T01:01:38.522Z,17.62
2019-01-18T01:02:38.219Z,18.23
2019-01-18T01:03:41.634Z,15.88
2019-01-18T01:04:42.616Z,15.55
2019-01-18T01:05:42.763Z,12.45
2019-01-18T01:07:26.016Z,15.78
2019-01-18T01:08:18.526Z,15.23
2019-01-18T01:09:29.580Z,16.73
2019-01-18T01:13:59.183Z,12.15
2019-01-18T01:16:57.029Z,13.68
2019-01-18T01:19:31.715Z,12.95
2019-01-18T01:20:38.754Z,10.95
2019-01-18T01:21:45.748Z,15.20
2019-01-18T01:22:52.595Z,13.60
2019-01-18T01:23:59.529Z,12.73
2019-01-18T01:25:06.679Z,13.30
2019-01-18T01:26:13.500Z,13.72
2019-01-18T01:27:20.373Z,13.18
2019-01-18T01:28:27.333Z,10.55
2019-01-18T01:29:34.215Z,13.13
2019-01-18T01:30:41.167Z,13.30
2019-01-18T01:31:48.035Z,13.95
2019-01-18T01:32:54.943Z,12.10
2019-01-18T01:34:01.809Z,14.00
2019-01-18T01:35:08.679Z,15.23
2019-01-18T01:36:15.507Z,11.75
2019-01-18T01:37:22.427Z,14.00
2019-01-18T01:38:29.379Z,19.12
2019-01-18T01:39:36.255Z,12.07
2019-01-18T01:40:43.082Z,17.40
2019-01-18T01:41:49.956Z,14.58
2019-01-18T01:42:56.862Z,16.93
2019-01-18T01:44:04.154Z,14.80
2019-01-18T01:45:11.533Z,15.40
2019-01-18T01:46:18.504Z,15.50
2019-01-18T01:47:25.469Z,11.55
2019-01-18T01:48:32.413Z,16.23
2019-01-18T01:49:39.352Z,14.43
2019-01-18T01:50:47.310Z,15.13
2019-01-18T01:51:54.336Z,17.55
2019-01-18T01:53:01.218Z,12.58
2019-01-18T01:54:08.092Z,16.17
2019-01-18T01:55:14.985Z,17.62
2019-01-18T01:56:22.049Z,14.05
2019-01-18T01:57:29.080Z,17.70
2019-01-18T01:58:36.015Z,16.65
2019-01-18T01:59:49.597Z,16.05
2019-01-18T02:00:52.254Z,15.60
2019-01-18T02:01:59.316Z,17.87
2019-01-18T02:03:06.259Z,20.48
2019-01-18T02:04:13.248Z,17.10
2019-01-18T02:05:20.152Z,18.90
2019-01-18T02:06:27.178Z,17.80
2019-01-18T02:07:34.203Z,17.50
2019-01-18T02:08:41.151Z,17.30
2019-01-18T02:09:48.158Z,20.17
2019-01-18T02:10:55.111Z,18.87
2019-01-18T02:12:02.068Z,19.95
2019-01-18T02:13:09.010Z,19.37
2019-01-18T02:14:15.969Z,18.60
2019-01-18T02:15:26.937Z,17.85
2019-01-18T02:16:55.574Z,19.48
2019-01-18T02:18:02.908Z,19.15
2019-01-18T02:19:09.792Z,17.85
2019-01-18T02:20:17.536Z,17.87
2019-01-18T02:21:24.773Z,18.15
2019-01-18T02:22:31.732Z,19.60
2019-01-18T02:23:38.755Z,21.82
2019-01-18T02:24:45.812Z,17.05
2019-01-18T02:25:52.737Z,23.22
2019-01-18T02:26:59.718Z,20.35
2019-01-18T02:28:06.670Z,21.60
2019-01-18T02:29:13.537Z,22.67
2019-01-18T02:30:21.998Z,20.80
2019-01-18T02:31:29.053Z,19.85
2019-01-18T02:32:36.052Z,21.60
2019-01-18T02:33:44.592Z,19.70
2019-01-18T02:34:51.565Z,17.35
2019-01-18T02:35:58.424Z,21.97
2019-01-18T02:37:05.462Z,21.40
2019-01-18T02:38:12.518Z,16.75
2019-01-18T02:39:19.453Z,20.32
2019-01-18T02:40:26.407Z,20.02
2019-01-18T02:41:36.037Z,20.82
2019-01-18T02:42:43.176Z,22.15
2019-01-18T02:43:50.260Z,19.75
2019-01-18T02:44:57.264Z,22.98
2019-01-18T02:46:04.159Z,18.30
2019-01-18T02:47:12.149Z,20.57
2019-01-18T02:48:19.096Z,22.90
2019-01-18T02:49:26.352Z,21.75
2019-01-18T02:50:33.423Z,18.27
2019-01-18T02:51:40.313Z,23.00
2019-01-18T02:52:47.346Z,19.30
2019-01-18T02:53:54.217Z,19.37
2019-01-18T02:55:01.225Z,20.57
2019-01-18T02:56:08.273Z,21.82
2019-01-18T02:57:15.181Z,22.93
2019-01-18T02:58:22.167Z,19.82
2019-01-18T02:59:29.132Z,21.70
2019-01-18T03:00:36.176Z,22.45
2019-01-18T03:01:36.427Z,20.40
2019-01-18T03:02:36.876Z,19.42
2019-01-18T03:03:39.900Z,20.85
2019-01-18T03:04:40.811Z,20.97
2019-01-18T03:06:22.019Z,21.15
2019-01-18T03:07:22.324Z,21.02
2019-01-18T03:08:22.011Z,23.27
2019-01-18T03:10:04.106Z,23.83
2019-01-18T03:11:07.797Z,22.07
2019-01-18T03:12:08.543Z,21.70
2019-01-18T03:13:08.593Z,19.95
2019-01-18T03:14:09.432Z,25.80
2019-01-18T03:15:09.359Z,23.98
2019-01-18T03:16:08.945Z,20.12
2019-01-18T03:17:08.675Z,19.50
2019-01-18T03:18:09.761Z,21.80
2019-01-18T03:19:52.417Z,19.37
2019-01-18T03:20:52.514Z,21.90
2019-01-18T03:21:52.974Z,25.85
2019-01-18T03:22:56.425Z,19.87
2019-01-18T03:23:56.028Z,18.67
2019-01-18T03:24:55.604Z,22.40
2019-01-18T03:25:55.149Z,18.70
2019-01-18T03:26:57.732Z,19.02
2019-01-18T03:27:57.437Z,25.27
2019-01-18T03:28:57.003Z,21.40
2019-01-18T03:29:56.895Z,18.75
2019-01-18T03:30:54.906Z,19.87
2019-01-18T03:32:04.908Z,19.75
2019-01-18T03:33:11.807Z,22.87
2019-01-18T03:34:18.684Z,21.65
2019-01-18T03:35:25.533Z,20.05
2019-01-18T03:36:35.466Z,17.77
2019-01-18T03:37:43.079Z,22.05
2019-01-18T03:38:49.933Z,23.77
2019-01-18T03:39:56.828Z,22.52
2019-01-18T03:40:44.705Z,19.75
2019-01-18T03:41:51.815Z,22.30
2019-01-18T03:42:58.693Z,26.23
2019-01-18T03:44:05.681Z,23.60
2019-01-18T03:45:13.493Z,23.47
2019-01-18T03:46:20.383Z,22.55
2019-01-18T03:47:27.340Z,21.15
2019-01-18T03:48:34.209Z,19.65
2019-01-18T03:49:41.102Z,21.48
2019-01-18T03:50:47.983Z,21.80
2019-01-18T03:51:54.812Z,25.85
2019-01-18T03:53:01.826Z,19.32
2019-01-18T03:54:09.011Z,22.48
2019-01-18T03:55:15.949Z,22.05
2019-01-18T03:56:22.788Z,26.42
2019-01-18T03:57:29.716Z,21.95
2019-01-18T03:58:36.656Z,24.40
2019-01-18T03:59:43.511Z,20.68
2019-01-18T04:00:50.528Z,22.13
2019-01-18T04:01:57.616Z,24.92
2019-01-18T04:03:24.757Z,19.95
2019-01-18T04:04:31.726Z,25.27
2019-01-18T04:05:38.718Z,28.27
2019-01-18T04:06:45.695Z,23.55
2019-01-18T04:07:53.108Z,23.35
2019-01-18T04:08:40.619Z,24.90
2019-01-18T04:09:47.450Z,24.65
2019-01-18T04:10:54.370Z,26.90
2019-01-18T04:12:01.368Z,29.02
2019-01-18T04:13:08.317Z,27.07
2019-01-18T04:14:15.378Z,25.95
2019-01-18T04:15:22.289Z,21.50
2019-01-18T04:16:29.432Z,28.20
2019-01-18T04:17:36.494Z,27.25
2019-01-18T04:18:43.387Z,22.15
2019-01-18T04:19:50.680Z,26.00
2019-01-18T04:20:57.604Z,25.92
2019-01-18T04:22:04.450Z,25.60
2019-01-18T04:23:11.347Z,25.05
2019-01-18T04:24:18.280Z,20.08
2019-01-18T04:27:16.419Z,28.73
2019-01-18T04:28:23.361Z,30.55
2019-01-18T04:29:30.399Z,30.25
2019-01-18T04:30:37.427Z,27.82
2019-01-18T04:31:24.871Z,25.50
2019-01-18T04:32:12.342Z,28.17
2019-01-18T04:33:19.275Z,24.12
2019-01-18T04:34:26.179Z,23.87
2019-01-18T04:35:33.112Z,25.60
2019-01-18T04:36:39.986Z,29.07
2019-01-18T04:37:46.873Z,25.82
2019-01-18T04:38:34.418Z,25.52
2019-01-18T04:39:41.463Z,28.02
2019-01-18T04:40:48.401Z,22.62
2019-01-18T04:41:35.815Z,25.08
2019-01-18T04:42:42.712Z,26.48
2019-01-18T04:43:49.674Z,22.85
2019-01-18T04:44:56.627Z,27.87
2019-01-18T04:46:03.600Z,26.00
2019-01-18T04:47:10.520Z,24.87
2019-01-18T04:48:18.043Z,21.90
2019-01-18T04:49:25.325Z,26.52
2019-01-18T04:50:35.648Z,27.13
2019-01-18T04:52:03.128Z,24.77
2019-01-18T04:53:10.862Z,22.67
2019-01-18T04:53:58.443Z,23.90
2019-01-18T04:55:06.113Z,25.25
2019-01-18T04:56:13.117Z,29.10
2019-01-18T04:57:20.278Z,25.55
2019-01-18T04:58:27.976Z,25.55
2019-01-18T04:59:36.356Z,27.02
2019-01-18T05:00:44.866Z,27.55
2019-01-18T05:01:45.304Z,27.05
2019-01-18T05:02:46.232Z,27.93
2019-01-18T05:03:48.040Z,31.37
2019-01-18T05:04:39.433Z,31.60
2019-01-18T05:05:47.387Z,29.37
2019-01-18T05:06:55.062Z,28.38
2019-01-18T05:08:02.340Z,27.98
2019-01-18T05:09:09.378Z,24.98
2019-01-18T05:10:16.734Z,25.85
2019-01-18T05:11:23.851Z,27.50
2019-01-18T05:12:30.902Z,30.35
2019-01-18T05:13:37.794Z,28.42
2019-01-18T05:14:45.081Z,28.85
2019-01-18T05:15:52.199Z,30.65
2019-01-18T05:16:59.612Z,31.73
2019-01-18T05:18:24.182Z,28.92
2019-01-18T05:19:39.085Z,28.25
2019-01-18T05:20:46.036Z,31.30
2019-01-18T05:21:53.620Z,29.60
2019-01-18T05:23:01.269Z,29.20
2019-01-18T05:24:08.724Z,28.62
2019-01-18T05:25:16.419Z,24.70
2019-01-18T05:26:23.861Z,25.12
2019-01-18T05:27:31.945Z,31.15
2019-01-18T05:28:41.416Z,31.02
2019-01-18T05:29:55.006Z,26.42
2019-01-18T05:31:05.647Z,27.73
2019-01-18T05:32:13.670Z,25.57
2019-01-18T05:33:21.331Z,32.08
2019-01-18T05:34:28.513Z,25.15
2019-01-18T05:35:36.824Z,25.97
2019-01-18T05:36:37.014Z,32.00
2019-01-18T05:37:37.488Z,32.38
2019-01-18T05:38:41.165Z,34.23
2019-01-18T05:39:41.671Z,28.38
2019-01-18T05:40:44.246Z,24.25
2019-01-18T05:41:47.020Z,29.52
2019-01-18T05:42:47.468Z,30.88
2019-01-18T05:43:47.051Z,29.95
2019-01-18T05:44:47.584Z,32.63
2019-01-18T05:45:48.214Z,26.52
2019-01-18T05:46:48.744Z,29.27
2019-01-18T05:47:49.406Z,27.80
2019-01-18T05:48:49.322Z,30.88
2019-01-18T05:49:49.991Z,34.78
2019-01-18T05:50:49.685Z,30.75
2019-01-18T05:51:53.851Z,32.25
2019-01-18T05:52:53.875Z,32.33
2019-01-18T05:53:54.860Z,26.87
2019-01-18T05:54:58.167Z,29.50
2019-01-18T05:56:00.021Z,25.43
2019-01-18T05:57:03.383Z,26.73
2019-01-18T05:58:03.585Z,30.43
2019-01-18T05:59:04.387Z,31.07
2019-01-18T06:00:55.321Z,29.35
2019-01-18T06:02:14.184Z,26.85
2019-01-18T06:03:14.798Z,28.62
2019-01-18T06:04:18.137Z,32.55
2019-01-18T06:05:18.812Z,33.00
2019-01-18T06:06:19.146Z,32.17
2019-01-18T06:07:21.697Z,34.25
2019-01-18T06:08:21.331Z,31.82
2019-01-18T06:09:20.959Z,27.37
2019-01-18T06:10:24.419Z,32.33
2019-01-18T06:11:24.880Z,29.67
2019-01-18T06:12:24.496Z,27.77
2019-01-18T06:13:24.986Z,30.55
2019-01-18T06:14:23.930Z,32.20
2019-01-18T06:15:34.521Z,28.00
2019-01-18T06:16:41.463Z,27.50
2019-01-18T06:17:48.662Z,34.65
2019-01-18T06:18:55.664Z,27.55
2019-01-18T06:20:24.213Z,27.35
2019-01-18T06:21:31.312Z,27.48
2019-01-18T06:22:38.252Z,28.07
2019-01-18T06:23:45.776Z,28.27
2019-01-18T06:24:53.065Z,27.65
2019-01-18T06:26:00.117Z,23.57
2019-01-18T06:27:07.097Z,28.23
2019-01-18T06:28:14.125Z,28.25
2019-01-18T06:29:21.170Z,26.80
2019-01-18T06:30:28.297Z,29.40
2019-01-18T06:31:35.484Z,30.50
2019-01-18T06:32:42.475Z,27.87
2019-01-18T06:33:49.717Z,24.23
2019-01-18T06:34:56.879Z,28.50
2019-01-18T06:36:04.324Z,25.45
2019-01-18T06:37:11.637Z,23.75
2019-01-18T06:38:39.535Z,28.85
2019-01-18T06:39:49.671Z,24.98
2019-01-18T06:42:30.743Z,29.63
2019-01-18T06:43:37.937Z,28.80
2019-01-18T06:44:44.968Z,28.77
2019-01-18T06:45:52.477Z,26.27
2019-01-18T06:50:43.350Z,24.55
2019-01-18T06:51:51.151Z,30.43
2019-01-18T06:52:58.424Z,26.70
2019-01-18T06:54:26.706Z,24.57
2019-01-18T06:55:47.835Z,27.32
2019-01-18T06:57:22.683Z,32.45
2019-01-18T06:58:37.664Z,29.98
2019-01-18T06:59:44.745Z,26.85
2019-01-18T07:00:35.883Z,30.12
2019-01-18T07:01:28.569Z,27.10
2019-01-18T07:02:29.611Z,26.57
2019-01-18T07:03:29.953Z,31.75
2019-01-18T07:04:20.924Z,34.45
2019-01-18T07:06:58.517Z,34.88
2019-01-18T07:08:05.639Z,30.08
2019-01-18T07:08:53.147Z,28.80
2019-01-18T07:10:00.098Z,28.07
2019-01-18T07:11:07.264Z,32.95
2019-01-18T07:12:14.527Z,30.62
2019-01-18T07:13:21.563Z,27.93
2019-01-18T07:14:28.439Z,27.10
2019-01-18T07:15:35.464Z,28.52
2019-01-18T07:16:23.075Z,26.40
2019-01-18T07:17:30.039Z,30.20
2019-01-18T07:18:37.072Z,31.73
2019-01-18T07:19:43.963Z,28.52
2019-01-18T07:20:50.920Z,29.92
2019-01-18T07:21:57.975Z,29.90
2019-01-18T07:23:04.816Z,28.77
2019-01-18T07:24:11.723Z,33.83
2019-01-18T07:25:22.506Z,25.45
2019-01-18T07:26:29.785Z,26.33
2019-01-18T07:27:37.169Z,31.70
2019-01-18T07:28:44.401Z,28.77
2019-01-18T07:29:51.348Z,31.70
2019-01-18T07:30:59.148Z,28.30
2019-01-18T07:32:06.114Z,26.93
2019-01-18T07:33:13.960Z,29.23
2019-01-18T07:34:21.024Z,25.08
2019-01-18T07:35:28.027Z,29.57
2019-01-18T07:36:35.145Z,29.30
2019-01-18T07:37:42.320Z,26.82
2019-01-18T07:38:49.536Z,30.45
2019-01-18T07:39:56.570Z,29.45
2019-01-18T07:41:03.447Z,27.75
2019-01-18T07:42:10.408Z,28.05
2019-01-18T07:43:17.271Z,28.65
2019-01-18T07:44:24.283Z,27.20
2019-01-18T07:45:31.183Z,29.50
2019-01-18T07:46:38.391Z,28.35
2019-01-18T07:47:45.347Z,30.12
2019-01-18T07:48:52.481Z,28.32
2019-01-18T07:49:59.513Z,31.42
2019-01-18T07:51:06.539Z,32.90
2019-01-18T07:52:13.371Z,26.75
2019-01-18T07:53:20.350Z,27.85
2019-01-18T07:54:27.325Z,32.48
2019-01-18T07:55:34.233Z,29.48
2019-01-18T07:56:41.065Z,27.37
2019-01-18T07:57:47.950Z,29.92
2019-01-18T07:58:54.916Z,27.35
2019-01-18T08:00:01.863Z,27.05
2019-01-18T08:01:08.780Z,31.50
2019-01-18T08:02:15.677Z,31.85
2019-01-18T08:03:15.943Z,35.10
2019-01-18T08:04:15.631Z,37.60
2019-01-18T08:05:19.575Z,32.40
2019-01-18T08:06:22.579Z,32.42
2019-01-18T08:07:25.116Z,32.48
2019-01-18T08:08:24.735Z,35.33
2019-01-18T08:09:27.430Z,33.48
2019-01-18T08:10:30.996Z,32.83
2019-01-18T08:11:31.422Z,32.20
2019-01-18T08:12:31.144Z,32.28
2019-01-18T08:13:30.577Z,35.00
2019-01-18T08:14:30.994Z,36.45
2019-01-18T08:15:30.713Z,31.90
2019-01-18T08:16:30.236Z,33.13
2019-01-18T08:17:29.760Z,31.90
2019-01-18T08:18:29.210Z,33.75
2019-01-18T08:19:28.644Z,34.35
2019-01-18T08:20:27.341Z,34.53
2019-01-18T08:21:34.152Z,34.25
2019-01-18T08:22:41.251Z,29.52
2019-01-18T08:23:48.153Z,27.65
2019-01-18T08:24:54.982Z,38.48
2019-01-18T08:26:01.882Z,34.85
2019-01-18T08:27:08.807Z,37.83
2019-01-18T08:28:15.672Z,33.95
2019-01-18T08:29:22.554Z,38.02
2019-01-18T08:30:29.789Z,40.12
2019-01-18T08:31:36.688Z,38.13
2019-01-18T08:32:43.535Z,40.38
2019-01-18T08:33:50.443Z,39.27
2019-01-18T08:34:57.323Z,41.55
2019-01-18T08:36:04.273Z,39.45
2019-01-18T08:37:11.133Z,44.20
2019-01-18T08:38:18.027Z,44.70
2019-01-18T08:39:24.960Z,41.50
2019-01-18T08:40:35.928Z,42.00
2019-01-18T08:41:42.844Z,46.33
2019-01-18T08:42:49.669Z,49.73
2019-01-18T08:43:56.544Z,49.08
2019-01-18T08:45:04.215Z,46.02
2019-01-18T08:46:31.083Z,46.42
2019-01-18T08:47:37.936Z,46.68
2019-01-18T08:48:44.949Z,50.48
2019-01-18T08:49:51.862Z,51.83
2019-01-18T08:50:58.730Z,55.85
2019-01-18T08:52:28.533Z,46.02
2019-01-18T08:53:35.507Z,50.40
2019-01-18T08:54:42.369Z,46.45
2019-01-18T08:55:49.248Z,60.63
2019-01-18T08:56:56.181Z,63.68
2019-01-18T08:58:03.286Z,63.02
2019-01-18T08:59:10.308Z,76.45
2019-01-18T09:00:17.967Z,65.10
2019-01-18T09:01:24.817Z,80.72
2019-01-18T09:02:31.676Z,89.28
2019-01-18T09:03:38.784Z,73.92
2019-01-18T09:04:45.619Z,75.40
2019-01-18T09:05:52.503Z,71.02
2019-01-18T09:06:59.371Z,71.55
2019-01-18T09:08:06.223Z,73.45
2019-01-18T09:09:13.102Z,67.00
2019-01-18T09:10:20.631Z,62.53
2019-01-18T09:11:27.620Z,59.93
2019-01-18T09:12:34.508Z,57.60
2019-01-18T09:13:41.356Z,55.95
2019-01-18T09:14:48.252Z,54.33
2019-01-18T09:15:55.114Z,54.77
2019-01-18T09:17:02.039Z,54.63
2019-01-18T09:18:09.133Z,48.15
2019-01-18T09:19:16.059Z,47.53
2019-01-18T09:21:50.247Z,46.98
2019-01-18T09:22:57.475Z,46.75
2019-01-18T09:24:04.835Z,42.60
2019-01-18T09:25:11.695Z,41.23
2019-01-18T09:26:18.651Z,42.45
2019-01-18T09:27:25.505Z,42.08
2019-01-18T09:28:32.444Z,36.70
2019-01-18T09:29:39.388Z,37.85
2019-01-18T09:30:46.275Z,34.53
2019-01-18T09:31:53.156Z,30.88
2019-01-18T09:33:00.451Z,40.55
2019-01-18T09:34:07.435Z,32.20
2019-01-18T09:35:14.743Z,31.10
2019-01-18T09:36:21.543Z,31.12
2019-01-18T09:37:28.447Z,32.53
2019-01-18T09:38:35.382Z,27.45
2019-01-18T09:39:42.287Z,26.68
2019-01-18T09:40:49.123Z,30.95
2019-01-18T09:41:56.024Z,26.10
2019-01-18T09:43:02.883Z,27.42
2019-01-18T09:44:09.719Z,29.52
2019-01-18T09:45:16.649Z,30.82
2019-01-18T09:46:23.603Z,30.62
2019-01-18T09:47:30.527Z,25.88
2019-01-18T09:48:37.396Z,26.23
2019-01-18T09:49:44.252Z,27.40
2019-01-18T09:50:51.173Z,20.77
2019-01-18T09:51:57.998Z,23.35
2019-01-18T09:53:05.454Z,27.85
2019-01-18T09:54:12.355Z,25.17
2019-01-18T09:55:19.338Z,26.10
2019-01-18T09:56:26.235Z,21.10
2019-01-18T09:57:33.060Z,20.57
2019-01-18T09:58:40.006Z,21.33
2019-01-18T09:59:46.912Z,16.10
2019-01-18T10:00:53.757Z,19.82
2019-01-18T10:02:00.667Z,21.10
2019-01-18T10:03:07.670Z,18.32
2019-01-18T10:04:14.649Z,17.52
2019-01-18T10:06:48.114Z,18.10
2019-01-18T10:07:55.054Z,16.27
2019-01-18T10:10:36.646Z,19.30
2019-01-18T10:11:43.646Z,15.45
2019-01-18T10:12:50.722Z,18.30
2019-01-18T10:13:57.727Z,17.37
2019-01-18T10:15:06.028Z,17.27
2019-01-18T10:16:12.912Z,20.02
2019-01-18T10:17:19.825Z,14.73
2019-01-18T10:18:26.726Z,20.92
2019-01-18T10:19:33.623Z,16.80
2019-01-18T10:20:40.519Z,15.63
2019-01-18T10:21:47.344Z,14.73
2019-01-18T10:22:54.234Z,16.85
2019-01-18T10:24:01.140Z,18.35
2019-01-18T10:25:09.448Z,19.37
2019-01-18T10:26:16.376Z,16.67
2019-01-18T10:27:23.982Z,15.70
2019-01-18T10:28:51.998Z,15.48
2019-01-18T10:29:58.929Z,16.97
2019-01-18T10:31:05.806Z,19.52
2019-01-18T10:32:12.719Z,16.55
2019-01-18T10:33:19.599Z,18.98
2019-01-18T10:34:26.479Z,14.68
2019-01-18T10:35:33.410Z,17.23
2019-01-18T10:36:40.329Z,16.48
2019-01-18T10:37:47.433Z,18.87
2019-01-18T10:38:35.018Z,18.60
2019-01-18T10:39:22.606Z,18.15
2019-01-18T10:40:29.566Z,15.45
2019-01-18T10:41:56.016Z,17.67
2019-01-18T10:43:03.130Z,18.45
2019-01-18T10:44:10.187Z,15.98
2019-01-18T10:45:17.344Z,15.48
2019-01-18T10:46:24.207Z,13.68
2019-01-18T10:47:31.045Z,16.65
2019-01-18T10:48:18.692Z,15.53
2019-01-18T10:49:25.520Z,21.33
2019-01-18T10:50:32.689Z,18.30
2019-01-18T10:51:20.242Z,18.50
2019-01-18T10:52:07.835Z,18.40
2019-01-18T10:52:55.464Z,20.30
2019-01-18T10:53:43.054Z,20.60
2019-01-18T10:54:50.130Z,18.15
2019-01-18T10:55:37.760Z,21.17
2019-01-18T10:56:44.605Z,19.17
2019-01-18T10:57:51.483Z,16.35
2019-01-18T10:58:58.443Z,18.00
2019-01-18T11:01:04.854Z,17.98
2019-01-18T11:02:11.890Z,24.82
2019-01-18T11:03:18.765Z,20.68
2019-01-18T11:04:25.865Z,20.62
2019-01-18T11:05:32.758Z,24.92
2019-01-18T11:06:39.688Z,19.73
2019-01-18T11:07:46.558Z,20.75
2019-01-18T11:08:53.439Z,24.12
2019-01-18T11:10:00.262Z,22.75
2019-01-18T11:11:07.233Z,23.85
2019-01-18T11:12:14.231Z,28.05
2019-01-18T11:13:21.152Z,40.33
2019-01-18T11:14:28.681Z,24.60
2019-01-18T11:15:55.597Z,21.55
2019-01-18T11:17:02.665Z,24.95
2019-01-18T11:18:09.555Z,27.80
2019-01-18T11:19:16.412Z,21.85
2019-01-18T11:20:51.050Z,25.05
2019-01-18T11:22:17.168Z,227.30
2019-01-18T11:23:24.217Z,23.77
2019-01-18T11:24:31.132Z,24.92
2019-01-18T11:25:37.983Z,18.45
2019-01-18T11:26:44.972Z,18.62
2019-01-18T11:27:52.241Z,26.42
2019-01-18T11:28:59.185Z,21.97
2019-01-18T11:30:07.346Z,21.93
2019-01-18T11:31:14.400Z,19.62
2019-01-18T11:32:21.352Z,24.82
2019-01-18T11:33:28.425Z,20.43
2019-01-18T11:34:35.707Z,19.87
2019-01-18T11:35:42.799Z,26.02
2019-01-18T11:37:09.705Z,23.32
2019-01-18T11:38:16.657Z,19.48
2019-01-18T11:39:23.630Z,21.40
2019-01-18T11:40:30.597Z,18.17
2019-01-18T11:41:38.285Z,20.17
2019-01-18T11:42:45.241Z,19.52
2019-01-18T11:43:52.293Z,20.90
2019-01-18T11:45:19.357Z,18.85
2019-01-18T11:46:26.341Z,23.20
2019-01-18T11:47:33.328Z,20.50
2019-01-18T11:48:40.724Z,24.30
2019-01-18T11:49:47.713Z,26.87
2019-01-18T11:50:54.814Z,21.87
2019-01-18T11:51:42.313Z,19.25
2019-01-18T11:52:49.376Z,23.12
2019-01-18T11:53:56.377Z,21.12
2019-01-18T11:55:03.805Z,25.57
2019-01-18T11:56:10.772Z,22.93
2019-01-18T11:57:17.955Z,25.65
2019-01-18T11:58:24.928Z,27.65
2019-01-18T11:59:32.223Z,21.45
2019-01-18T12:00:39.443Z,21.80
2019-01-18T12:01:27.000Z,28.02
2019-01-18T12:02:34.341Z,23.75
2019-01-18T12:03:41.376Z,27.87
2019-01-18T12:04:29.098Z,24.52
2019-01-18T12:05:17.069Z,24.98
2019-01-18T12:06:04.570Z,21.07
2019-01-18T12:07:11.613Z,26.42
2019-01-18T12:08:18.527Z,25.82
2019-01-18T12:09:06.943Z,27.85
2019-01-18T12:10:15.225Z,23.02
2019-01-18T12:11:22.380Z,21.85
2019-01-18T12:12:29.721Z,27.02
2019-01-18T12:13:36.838Z,23.12
2019-01-18T12:14:43.939Z,21.87
2019-01-18T12:15:50.874Z,22.13
2019-01-18T12:16:58.002Z,24.65
2019-01-18T12:18:05.012Z,26.20
2019-01-18T12:19:12.227Z,25.02
2019-01-18T12:19:59.814Z,27.27
2019-01-18T12:21:07.454Z,28.80
2019-01-18T12:22:14.529Z,23.10
2019-01-18T12:23:21.654Z,23.02
2019-01-18T12:24:28.633Z,24.92
2019-01-18T12:25:35.558Z,24.15
2019-01-18T12:26:42.875Z,26.70
2019-01-18T12:27:49.819Z,25.50
2019-01-18T12:28:57.074Z,22.82
2019-01-18T12:30:04.858Z,23.92
2019-01-18T12:31:12.437Z,26.20
2019-01-18T12:32:19.758Z,27.82
2019-01-18T12:33:26.891Z,28.27
2019-01-18T12:34:34.109Z,25.12
2019-01-18T12:35:41.191Z,28.30
2019-01-18T12:36:48.203Z,28.80
2019-01-18T12:37:55.772Z,24.57
2019-01-18T12:39:24.469Z,25.40
2019-01-18T12:40:31.528Z,25.17
2019-01-18T12:41:38.612Z,24.60
2019-01-18T12:42:45.732Z,25.77
2019-01-18T12:43:52.942Z,25.15
2019-01-18T12:45:01.156Z,24.00
2019-01-18T12:46:28.752Z,22.60
2019-01-18T12:47:35.947Z,26.50
2019-01-18T12:48:42.904Z,25.62
2019-01-18T12:49:49.996Z,24.95
2019-01-18T12:50:56.946Z,23.55
2019-01-18T12:52:03.971Z,24.47
2019-01-18T12:53:11.042Z,29.90
2019-01-18T12:54:17.936Z,24.23
2019-01-18T12:55:25.796Z,24.02
2019-01-18T12:56:33.155Z,26.23
2019-01-18T12:57:40.251Z,22.80
2019-01-18T12:59:07.175Z,25.10
2019-01-18T13:00:15.364Z,26.60
2019-01-18T13:01:22.667Z,23.73
2019-01-18T13:02:35.341Z,25.30
2019-01-18T13:03:58.903Z,22.45
2019-01-18T13:06:48.139Z,22.35
2019-01-18T13:08:29.180Z,23.85
2019-01-18T13:09:28.726Z,25.70
2019-01-18T13:10:29.251Z,27.30
2019-01-18T13:11:28.805Z,24.55
2019-01-18T13:12:29.154Z,29.80
2019-01-18T13:13:28.680Z,24.50
2019-01-18T13:14:29.051Z,24.27
2019-01-18T13:16:11.980Z,27.67
2019-01-18T13:17:12.398Z,31.45
2019-01-18T13:18:11.929Z,25.62
2019-01-18T13:19:11.516Z,25.75
2019-01-18T13:20:14.260Z,25.12
2019-01-18T13:21:13.744Z,24.25
2019-01-18T13:22:13.274Z,26.00
2019-01-18T13:23:12.746Z,24.70
2019-01-18T13:24:12.216Z,31.93
2019-01-18T13:25:12.749Z,24.25
2019-01-18T13:26:12.250Z,26.90
2019-01-18T13:27:11.821Z,25.65
2019-01-18T13:28:11.302Z,30.97
2019-01-18T13:29:13.896Z,29.55
2019-01-18T13:30:13.409Z,32.53
2019-01-18T13:31:00.866Z,31.87
2019-01-18T13:32:07.787Z,26.48
2019-01-18T13:33:14.669Z,28.95
2019-01-18T13:34:21.624Z,30.32
2019-01-18T13:35:28.471Z,32.17
2019-01-18T13:36:35.361Z,26.52
2019-01-18T13:37:42.235Z,28.38
2019-01-18T13:38:49.138Z,25.32
2019-01-18T13:39:56.067Z,22.95
2019-01-18T13:41:03.000Z,22.45
2019-01-18T13:42:09.994Z,24.00
2019-01-18T13:43:17.075Z,37.93
2019-01-18T13:44:24.301Z,25.88
2019-01-18T13:45:31.564Z,35.30
2019-01-18T13:46:59.835Z,27.17
2019-01-18T13:48:06.753Z,25.72
2019-01-18T13:49:13.849Z,20.65
2019-01-18T13:50:01.334Z,28.25
2019-01-18T13:50:48.773Z,28.35
2019-01-18T13:51:36.470Z,27.52
2019-01-18T13:52:43.617Z,25.43
2019-01-18T13:53:50.702Z,24.70
2019-01-18T13:54:57.772Z,25.45
2019-01-18T13:56:04.781Z,28.02
2019-01-18T13:57:12.353Z,27.80
2019-01-18T13:58:40.620Z,24.65
2019-01-18T13:59:47.852Z,25.48
2019-01-18T14:00:54.883Z,24.92
2019-01-18T14:02:04.290Z,26.33
2019-01-18T14:03:11.784Z,28.87
2019-01-18T14:04:18.780Z,26.68
2019-01-18T14:05:18.599Z,28.32
2019-01-18T14:06:19.093Z,29.23
2019-01-18T14:07:19.686Z,30.15
2019-01-18T14:08:23.436Z,28.55
2019-01-18T14:09:24.020Z,29.45
2019-01-18T14:10:27.598Z,28.27
2019-01-18T14:12:10.320Z,27.60
2019-01-18T14:13:53.262Z,32.10
2019-01-18T14:15:38.769Z,27.98
2019-01-18T14:16:42.031Z,30.57
2019-01-18T14:19:10.197Z,32.13
2019-01-18T14:20:11.769Z,34.73
2019-01-18T14:21:11.367Z,35.05
2019-01-18T14:22:02.156Z,31.00
2019-01-18T14:22:51.052Z,32.53
2019-01-18T14:23:58.126Z,32.55
2019-01-18T14:25:05.008Z,35.43
2019-01-18T14:26:12.182Z,34.90
2019-01-18T14:27:19.371Z,37.70
2019-01-18T14:28:26.604Z,35.50
2019-01-18T14:29:33.747Z,32.05
2019-01-18T14:30:40.844Z,35.90
2019-01-18T14:31:48.141Z,34.88
2019-01-18T14:32:55.669Z,33.00
2019-01-18T14:34:23.766Z,34.48
2019-01-18T14:35:30.626Z,34.73
2019-01-18T14:36:37.514Z,36.75
2019-01-18T14:37:44.417Z,34.58
2019-01-18T14:38:51.340Z,32.70
2019-01-18T14:39:58.211Z,34.38
2019-01-18T14:41:05.127Z,32.63